createdAt,value
2019-05-25T00:01:54.082Z,21.98
2019-05-25T00:06:55.437Z,21.89
2019-05-25T00:11:56.857Z,21.77
2019-05-25T00:16:58.166Z,21.75
2019-05-25T00:21:59.474Z,21.70
2019-05-25T00:27:01.630Z,21.59
2019-05-25T00:32:03.811Z,21.47
2019-05-25T00:37:05.104Z,21.33
2019-05-25T00:42:07.352Z,21.22
2019-05-25T00:47:08.757Z,21.08
2019-05-25T00:52:10.889Z,20.98
2019-05-25T00:57:12.318Z,20.97
2019-05-25T01:02:13.646Z,20.85
2019-05-25T01:07:15.010Z,20.75
2019-05-25T01:12:16.340Z,20.65
2019-05-25T01:17:17.690Z,20.54
2019-05-25T01:22:18.994Z,20.36
2019-05-25T01:27:20.299Z,20.25
2019-05-25T01:32:21.710Z,20.06
2019-05-25T01:37:23.052Z,19.94
2019-05-25T01:42:24.417Z,19.79
2019-05-25T01:47:25.799Z,19.78
2019-05-25T01:52:27.190Z,19.65
2019-05-25T01:57:28.514Z,19.58
2019-05-25T02:02:29.972Z,19.77
2019-05-25T02:07:31.349Z,19.81
2019-05-25T02:12:32.731Z,19.45
2019-05-25T02:17:34.121Z,19.32
2019-05-25T02:22:35.557Z,19.42
2019-05-25T02:27:36.894Z,19.46
2019-05-25T02:32:38.329Z,19.28
2019-05-25T02:37:39.675Z,19.18
2019-05-25T02:42:41.050Z,18.91
2019-05-25T02:47:43.176Z,18.85
2019-05-25T02:52:44.552Z,18.85
2019-05-25T02:57:45.930Z,18.84
2019-05-25T03:02:47.536Z,18.73
2019-05-25T03:07:48.793Z,18.68
2019-05-25T03:12:50.185Z,18.65
2019-05-25T03:17:51.549Z,18.53
2019-05-25T03:22:52.906Z,18.41
2019-05-25T03:27:54.263Z,18.26
2019-05-25T03:32:55.682Z,18.16
2019-05-25T03:37:57.072Z,18.14
2019-05-25T03:42:59.192Z,18.16
2019-05-25T03:48:00.613Z,18.13
2019-05-25T03:53:01.958Z,18.19
2019-05-25T03:58:03.385Z,18.09
2019-05-25T04:03:04.721Z,18.03
2019-05-25T04:08:06.064Z,17.80
2019-05-25T04:13:07.422Z,17.52
2019-05-25T04:18:08.800Z,17.60
2019-05-25T04:23:10.102Z,17.63
2019-05-25T04:28:11.509Z,17.72
2019-05-25T04:33:12.920Z,17.85
2019-05-25T04:38:15.043Z,17.88
2019-05-25T04:43:16.480Z,18.01
2019-05-25T04:48:17.857Z,18.09
2019-05-25T04:53:19.289Z,18.13
2019-05-25T04:58:21.454Z,18.27
2019-05-25T05:03:23.628Z,18.32
2019-05-25T05:08:25.695Z,18.53
2019-05-25T05:13:27.049Z,18.71
2019-05-25T05:18:28.470Z,18.80
2019-05-25T05:23:29.938Z,19.02
2019-05-25T05:28:32.057Z,19.16
2019-05-25T05:33:33.507Z,19.50
2019-05-25T05:38:34.972Z,19.69
2019-05-25T05:43:36.372Z,19.88
2019-05-25T05:48:37.779Z,19.99
2019-05-25T05:53:39.896Z,20.13
2019-05-25T05:58:41.201Z,20.34
2019-05-25T06:03:42.575Z,20.34
2019-05-25T06:08:47.791Z,20.18
2019-05-25T06:13:49.384Z,20.36
2019-05-25T06:18:50.731Z,20.67
2019-05-25T06:23:52.109Z,20.72
2019-05-25T06:28:53.489Z,20.96
2019-05-25T06:33:55.214Z,21.18
2019-05-25T06:38:56.681Z,21.24
2019-05-25T06:43:59.252Z,21.38
2019-05-25T06:49:01.402Z,21.40
2019-05-25T06:54:02.801Z,21.20
2019-05-25T06:59:04.198Z,21.51
2019-05-25T07:04:09.824Z,21.68
2019-05-25T07:09:11.205Z,21.86
2019-05-25T07:14:12.539Z,21.55
2019-05-25T07:19:13.891Z,21.26
2019-05-25T07:24:15.257Z,21.99
2019-05-25T07:29:16.597Z,22.27
2019-05-25T07:34:17.936Z,22.24
2019-05-25T07:39:19.275Z,21.47
2019-05-25T07:44:21.381Z,22.33
2019-05-25T07:49:23.112Z,22.40
2019-05-25T07:54:24.491Z,22.33
2019-05-25T07:59:26.537Z,22.72
2019-05-25T08:04:27.870Z,22.79
2019-05-25T08:09:29.216Z,23.05
2019-05-25T08:14:30.579Z,23.10
2019-05-25T08:19:32.640Z,23.39
2019-05-25T08:24:33.970Z,23.90
2019-05-25T08:29:35.338Z,23.89
2019-05-25T08:34:36.700Z,23.93
2019-05-25T08:39:38.028Z,23.49
2019-05-25T08:44:39.366Z,23.17
2019-05-25T08:49:40.739Z,24.14
2019-05-25T08:54:42.761Z,23.59
2019-05-25T08:59:44.077Z,23.90
2019-05-25T09:04:46.152Z,24.29
2019-05-25T09:09:47.448Z,23.97
2019-05-25T09:14:48.735Z,23.55
2019-05-25T09:19:50.109Z,24.20
2019-05-25T09:24:51.558Z,24.41
2019-05-25T09:29:52.898Z,24.26
2019-05-25T09:34:54.222Z,24.88
2019-05-25T09:39:55.550Z,23.14
2019-05-25T09:44:56.865Z,24.31
2019-05-25T09:49:58.177Z,24.21
2019-05-25T09:54:59.543Z,23.25
2019-05-25T10:00:00.848Z,24.08
2019-05-25T10:05:02.156Z,23.77
2019-05-25T10:10:03.554Z,23.51
2019-05-25T10:15:04.962Z,24.04
2019-05-25T10:20:07.074Z,23.46
2019-05-25T10:25:08.425Z,24.19
2019-05-25T10:30:09.825Z,24.12
2019-05-25T10:35:12.046Z,24.02
2019-05-25T10:40:13.379Z,24.45
2019-05-25T10:45:14.697Z,24.56
2019-05-25T10:50:16.752Z,25.25
2019-05-25T10:55:18.085Z,25.20
2019-05-25T11:00:19.447Z,24.58
2019-05-25T11:05:20.813Z,25.69
2019-05-25T11:10:22.581Z,25.47
2019-05-25T11:15:24.501Z,25.11
2019-05-25T11:20:25.914Z,26.12
2019-05-25T11:25:27.297Z,26.20
2019-05-25T11:30:28.721Z,25.88
2019-05-25T11:35:30.117Z,25.52
2019-05-25T11:40:31.548Z,24.90
2019-05-25T11:45:32.865Z,23.34
2019-05-25T11:50:34.191Z,23.91
2019-05-25T11:55:36.237Z,23.16
2019-05-25T12:00:38.885Z,23.42
2019-05-25T12:05:40.196Z,23.23
2019-05-25T12:10:41.613Z,22.99
2019-05-25T12:15:42.938Z,23.21
2019-05-25T12:20:45.212Z,23.65
2019-05-25T12:25:54.689Z,23.89
2019-05-25T12:30:57.658Z,23.76
2019-05-25T12:35:58.992Z,24.67
2019-05-25T12:41:00.321Z,24.90
2019-05-25T12:46:09.908Z,24.49
2019-05-25T12:51:11.271Z,25.53
2019-05-25T12:56:12.579Z,24.46
2019-05-25T13:01:13.889Z,24.63
2019-05-25T13:06:18.096Z,25.06
2019-05-25T13:11:17.315Z,25.03
2019-05-25T13:16:19.397Z,24.70
2019-05-25T13:21:21.465Z,25.24
2019-05-25T13:26:22.785Z,25.39
2019-05-25T13:31:24.102Z,25.48
2019-05-25T13:36:25.460Z,24.78
2019-05-25T13:41:26.772Z,25.13
2019-05-25T13:46:28.073Z,25.29
2019-05-25T13:51:29.405Z,24.61
2019-05-25T13:56:30.701Z,25.12
2019-05-25T14:01:32.069Z,24.70
2019-05-25T14:06:33.409Z,24.42
2019-05-25T14:11:34.740Z,24.80
2019-05-25T14:16:36.056Z,24.41
2019-05-25T14:21:37.371Z,24.59
2019-05-25T14:26:38.661Z,25.23
2019-05-25T14:31:45.558Z,25.45
2019-05-25T14:36:41.547Z,24.63
2019-05-25T14:41:43.597Z,24.88
2019-05-25T14:46:44.956Z,24.76
2019-05-25T14:51:46.281Z,25.62
2019-05-25T14:56:47.626Z,25.63
2019-05-25T15:02:01.463Z,25.47
2019-05-25T15:06:50.623Z,25.98
2019-05-25T15:11:54.024Z,25.49
2019-05-25T15:16:53.361Z,25.39
2019-05-25T15:21:54.819Z,26.16
2019-05-25T15:26:56.106Z,26.31
2019-05-25T15:31:57.436Z,26.40
2019-05-25T15:36:58.782Z,26.25
2019-05-25T15:42:00.145Z,26.11
2019-05-25T15:47:04.694Z,26.21
2019-05-25T15:52:02.803Z,26.19
2019-05-25T15:57:04.116Z,25.92
2019-05-25T16:02:05.456Z,25.67
2019-05-25T16:07:06.789Z,25.63
2019-05-25T16:12:08.115Z,25.69
2019-05-25T16:17:10.194Z,25.62
2019-05-25T16:22:11.609Z,25.09
2019-05-25T16:27:13.656Z,24.88
2019-05-25T16:32:14.973Z,25.08
2019-05-25T16:37:16.369Z,24.80
2019-05-25T16:42:17.689Z,24.91
2019-05-25T16:47:19.016Z,24.78
2019-05-25T16:52:20.341Z,24.82
2019-05-25T16:57:21.685Z,24.25
2019-05-25T17:02:23.010Z,24.04
2019-05-25T17:07:24.354Z,24.08
2019-05-25T17:12:26.466Z,23.73
2019-05-25T17:17:27.806Z,23.48
2019-05-25T17:22:29.875Z,23.29
2019-05-25T17:27:31.937Z,23.34
2019-05-25T17:32:33.246Z,23.49
2019-05-25T17:37:34.554Z,23.36
2019-05-25T17:42:35.884Z,22.94
2019-05-25T17:47:37.256Z,22.73
2019-05-25T17:52:38.597Z,21.54
2019-05-25T17:57:41.315Z,21.90
2019-05-25T18:02:42.628Z,22.27
2019-05-25T18:07:47.833Z,22.52
2019-05-25T18:12:51.718Z,22.49
2019-05-25T18:18:01.110Z,22.54
2019-05-25T18:23:06.018Z,22.47
2019-05-25T18:28:10.381Z,22.56
2019-05-25T18:33:27.371Z,22.55
2019-05-25T18:38:34.490Z,22.64
2019-05-25T18:43:40.756Z,22.68
2019-05-25T18:48:45.073Z,22.62
2019-05-25T18:53:50.328Z,22.18
2019-05-25T18:58:53.488Z,21.92
2019-05-25T19:03:58.246Z,21.91
2019-05-25T19:09:07.089Z,21.50
2019-05-25T19:14:08.453Z,21.65
2019-05-25T19:19:12.532Z,21.56
2019-05-25T19:24:13.893Z,21.47
2019-05-25T19:29:15.974Z,21.30
2019-05-25T19:34:17.318Z,21.33
2019-05-25T19:39:18.645Z,21.36
2019-05-25T19:44:19.948Z,21.25
2019-05-25T19:49:21.271Z,21.04
2019-05-25T19:54:22.618Z,20.78
2019-05-25T19:59:23.989Z,20.99
2019-05-25T20:04:25.293Z,20.78
2019-05-25T20:09:26.627Z,20.72
2019-05-25T20:14:27.957Z,20.54
2019-05-25T20:19:30.004Z,20.60
2019-05-25T20:24:31.348Z,20.46
2019-05-25T20:29:32.664Z,19.79
2019-05-25T20:34:34.778Z,19.83
2019-05-25T20:39:37.720Z,19.58
2019-05-25T20:44:39.030Z,19.61
2019-05-25T20:49:41.082Z,19.71
2019-05-25T20:54:42.419Z,19.57
2019-05-25T20:59:43.726Z,19.60
2019-05-25T21:04:45.095Z,19.64
2019-05-25T21:09:47.145Z,19.47
2019-05-25T21:14:48.509Z,19.45
2019-05-25T21:19:50.449Z,19.50
2019-05-25T21:24:51.799Z,19.71
2019-05-25T21:29:53.863Z,19.42
2019-05-25T21:34:56.690Z,19.50
2019-05-25T21:39:58.327Z,19.25
2019-05-25T21:44:59.650Z,19.41
2019-05-25T21:50:00.964Z,19.31
2019-05-25T21:55:03.071Z,19.49
2019-05-25T22:00:04.412Z,19.39
2019-05-25T22:05:06.454Z,19.36
2019-05-25T22:10:07.766Z,19.49
2019-05-25T22:15:09.852Z,19.35
2019-05-25T22:20:14.963Z,19.42
2019-05-25T22:25:16.305Z,19.49
2019-05-25T22:30:17.696Z,19.36
2019-05-25T22:35:19.045Z,19.00
2019-05-25T22:40:21.043Z,19.35
2019-05-25T22:45:22.879Z,19.35
2019-05-25T22:50:24.337Z,19.09
2019-05-25T22:55:26.429Z,19.11
2019-05-25T23:00:28.626Z,19.18
2019-05-25T23:05:30.069Z,19.04
2019-05-25T23:10:31.526Z,18.90
2019-05-25T23:15:33.552Z,19.06
2019-05-25T23:20:36.736Z,19.23
2019-05-25T23:25:38.294Z,19.37
2019-05-25T23:30:39.702Z,19.19
2019-05-25T23:35:41.041Z,19.27
2019-05-25T23:40:42.375Z,19.28
2019-05-25T23:45:45.200Z,19.26
2019-05-25T23:50:46.510Z,19.24
2019-05-25T23:55:47.907Z,19.17
